Aviation Digital Data Service (ADDS)

Output produced by METARs form (1206 UTC 28 August 2016)
found at http://aviationweather.gov/adds/metars/
 
KAOO 281145Z 2812/2912 VRB03KT P6SM FEW250 
     FM281500 18005KT P6SM SCT050 
     FM282100 20005KT P6SM VCTS BKN050CB 
     FM290000 VRB03KT P6SM VCSH BKN100 
     FM290700 33003KT 5SM BR SCT050